Osseo, Minnesota
Current Conditions -  °F | °C
As of 2:53 AM on Saturday 20 Dec 2014 (Local Time) from KMIC Reporting Station
Haze Haze  
Wind Chill: 21°   Ceiling: 1100
Heat Index: 30°   Visibility: 6mi
Dew Point: 26°   Wind: 10mph
Humidity: 85%   Direction: 160°SSE
Pressure: 30.15"   Gusts: NA
Location:  45.12°N, 93.4°W
Report Text: KMIC 200853Z AUTO 16009KT 6SM BR OVC011 M01/M03 A3015 RMK AO2 SLP220 T10111033 50000
Loading
Personal Weather Stations






























Interactive Weather Map New forecast layout! Learn more

10-Day Weather Forecast

Advertisements
Track Severe Weather on mobile